Time;durP1;ratioP1;P1;durP2;ratioP2;P2;SDS_P1;SDS_P2;PMS_P1;PMS_P2;Temp;Humidity;BMP_temperature;BMP_pressure;BME280_temperature;BME280_humidity;BME280_pressure;Samples;Min_cycle;Max_cycle;Signal;HPM_P1;HPM_P2
2022/07/26 00:01:36;;;;;;;14.30;9.33;;;;;;;;;;781915;179;920320;-55
2022/07/26 00:04:02;;;;;;;15.67;11.40;;;;;;;;;;773027;179;918968;-55
2022/07/26 00:06:28;;;;;;;18.97;9.87;;;;;;;;;;770078;180;636477;-55
2022/07/26 00:08:54;;;;;;;14.40;11.00;;;;;;;;;;776839;180;624845;-56
2022/07/26 00:11:20;;;;;;;16.40;10.93;;;;;;;;;;777849;180;658565;-55
2022/07/26 00:13:45;;;;;;;15.77;10.33;;;;;;;;;;775841;180;639960;-57
2022/07/26 00:16:11;;;;;;;16.80;10.43;;;;;;;;;;780419;179;625717;-58
2022/07/26 00:18:37;;;;;;;16.87;11.40;;;;;;;;;;771956;180;817515;-58
2022/07/26 00:21:03;;;;;;;15.33;11.07;;;;;;;;;;780617;180;614460;-58
2022/07/26 00:23:29;;;;;;;11.60;9.50;;;;;;;;;;775038;180;630726;-56
2022/07/26 00:25:55;;;;;;;19.60;12.83;;;;;;;;;;779963;180;620415;-55
2022/07/26 00:28:21;;;;;;;16.60;10.33;;;;;;;;;;780459;180;636471;-54
2022/07/26 00:30:46;;;;;;;16.43;10.63;;;;;;;;;;779582;180;634532;-55
2022/07/26 00:33:12;;;;;;;13.30;10.00;;;;;;;;;;757553;186;911784;-56
2022/07/26 00:35:38;;;;;;;13.80;10.77;;;;;;;;;;779741;180;918135;-55
2022/07/26 00:38:04;;;;;;;15.83;11.00;;;;;;;;;;780558;181;624907;-58
2022/07/26 00:40:30;;;;;;;23.00;10.30;;;;;;;;;;767620;181;625060;-58
2022/07/26 00:42:56;;;;;;;16.33;11.20;;;;;;;;;;772008;180;627914;-58
2022/07/26 00:45:22;;;;;;;13.00;9.80;;;;;;;;;;776430;180;625931;-58
2022/07/26 00:47:48;;;;;;;13.33;10.60;;;;;;;;;;779983;180;624918;-56
2022/07/26 00:50:13;;;;;;;15.85;12.23;;;;;;;;;;791619;176;898968;-55
2022/07/26 00:52:40;;;;;;;15.03;10.63;;;;;;;;;;765903;181;618305;-55
2022/07/26 00:55:06;;;;;;;16.35;10.88;;;;;;;;;;766829;181;929806;-55
2022/07/26 00:57:34;;;;;;;13.77;9.43;;;;;;;;;;780615;181;612312;-58
2022/07/26 01:00:00;;;;;;;17.30;10.70;;;;;;;;;;771817;180;633225;-55
2022/07/26 01:02:24;;;;;;;12.87;10.70;;;;;;;;;;780290;177;617112;-55
2022/07/26 01:04:50;;;;;;;17.33;12.37;;;;;;;;;;774119;182;622140;-58
2022/07/26 01:07:15;;;;;;;17.03;10.63;;;;;;;;;;776834;179;622010;-56
2022/07/26 01:09:41;;;;;;;14.37;10.30;;;;;;;;;;775391;181;621501;-59
2022/07/26 01:12:07;;;;;;;14.30;10.20;;;;;;;;;;779951;180;625567;-57
2022/07/26 01:14:33;;;;;;;14.20;10.53;;;;;;;;;;785540;177;616797;-55
2022/07/26 01:16:59;;;;;;;17.40;10.00;;;;;;;;;;786020;177;627870;-54
2022/07/26 01:19:25;;;;;;;16.50;10.70;;;;;;;;;;786574;177;669600;-55
2022/07/26 01:21:51;;;;;;;13.33;10.83;;;;;;;;;;788595;178;618783;-58
2022/07/26 01:24:17;;;;;;;12.43;11.10;;;;;;;;;;777418;177;900765;-58
2022/07/26 01:26:42;;;;;;;22.53;10.60;;;;;;;;;;782218;178;919022;-56
2022/07/26 01:29:08;;;;;;;17.23;10.47;;;;;;;;;;783256;177;816765;-55
2022/07/26 01:31:34;;;;;;;14.67;10.73;;;;;;;;;;779301;179;919407;-57
2022/07/26 01:34:00;;;;;;;11.53;9.50;;;;;;;;;;776070;179;798973;-58
2022/07/26 01:36:27;;;;;;;16.07;11.30;;;;;;;;;;790176;179;919586;-56
2022/07/26 01:38:53;;;;;;;13.23;10.80;;;;;;;;;;785171;178;915300;-55
2022/07/26 01:41:18;;;;;;;13.77;10.17;;;;;;;;;;772293;180;630266;-55
2022/07/26 01:43:44;;;;;;;14.80;9.53;;;;;;;;;;782152;177;622591;-57
2022/07/26 01:46:12;;;;;;;14.27;10.80;;;;;;;;;;796033;177;630626;-56
2022/07/26 01:48:36;;;;;;;13.17;10.97;;;;;;;;;;792693;176;625313;-55
2022/07/26 01:51:02;;;;;;;15.10;10.43;;;;;;;;;;786289;177;623192;-57
2022/07/26 01:53:28;;;;;;;20.17;11.60;;;;;;;;;;776428;179;619372;-56
2022/07/26 01:55:53;;;;;;;14.80;10.10;;;;;;;;;;789910;176;642995;-56
2022/07/26 01:58:19;;;;;;;10.97;9.33;;;;;;;;;;789423;178;630565;-56
2022/07/26 02:00:45;;;;;;;18.20;11.67;;;;;;;;;;793531;176;627661;-57
2022/07/26 02:03:11;;;;;;;15.20;11.10;;;;;;;;;;783237;178;764600;-55
2022/07/26 02:05:37;;;;;;;17.27;10.57;;;;;;;;;;765376;183;823447;-56
2022/07/26 02:08:03;;;;;;;17.00;9.83;;;;;;;;;;771113;181;723443;-55
2022/07/26 02:10:59;;;;;;;12.93;10.50;;;;;;;;;;780691;180;919658;-55
2022/07/26 02:12:54;;;;;;;15.20;11.57;;;;;;;;;;778714;178;922828;-55
2022/07/26 02:15:20;;;;;;;14.60;12.00;;;;;;;;;;793194;177;628613;-56
2022/07/26 02:17:46;;;;;;;15.50;10.97;;;;;;;;;;794740;177;635255;-58
2022/07/26 02:20:15;;;;;;;18.70;11.87;;;;;;;;;;790268;177;634524;-58
2022/07/26 02:22:38;;;;;;;16.17;11.40;;;;;;;;;;788530;175;640646;-55
2022/07/26 02:25:04;;;;;;;14.57;10.63;;;;;;;;;;791265;177;635476;-55
2022/07/26 02:27:30;;;;;;;13.93;10.40;;;;;;;;;;790086;178;639700;-56
2022/07/26 02:29:56;;;;;;;11.97;9.70;;;;;;;;;;762709;183;627272;-58
2022/07/26 02:32:21;;;;;;;15.43;11.73;;;;;;;;;;772031;181;634552;-56
2022/07/26 02:34:47;;;;;;;13.60;11.27;;;;;;;;;;762405;182;618189;-55
2022/07/26 02:37:13;;;;;;;17.93;10.77;;;;;;;;;;778021;177;630830;-56
2022/07/26 02:39:39;;;;;;;14.50;10.50;;;;;;;;;;777736;180;628348;-57
2022/07/26 02:42:05;;;;;;;13.90;11.80;;;;;;;;;;773490;180;618556;-58
2022/07/26 02:44:31;;;;;;;13.73;10.60;;;;;;;;;;770176;183;625600;-58
2022/07/26 02:46:56;;;;;;;12.90;10.70;;;;;;;;;;760203;184;620846;-56
2022/07/26 02:49:22;;;;;;;13.50;11.03;;;;;;;;;;770879;182;633049;-58
2022/07/26 02:51:48;;;;;;;15.53;10.83;;;;;;;;;;789868;177;633414;-59
2022/07/26 02:54:14;;;;;;;13.87;11.10;;;;;;;;;;764370;184;631584;-58
2022/07/26 02:56:40;;;;;;;12.50;10.50;;;;;;;;;;768556;182;635300;-59
2022/07/26 02:59:06;;;;;;;19.80;11.23;;;;;;;;;;771711;180;629133;-58
2022/07/26 03:01:34;;;;;;;15.30;11.00;;;;;;;;;;760649;180;622464;-58
2022/07/26 03:03:58;;;;;;;12.97;11.50;;;;;;;;;;788012;177;629664;-56
2022/07/26 03:06:24;;;;;;;15.07;12.10;;;;;;;;;;790084;175;827073;-56
2022/07/26 03:08:50;;;;;;;15.17;12.40;;;;;;;;;;787703;176;789171;-58
2022/07/26 03:11:16;;;;;;;18.10;13.37;;;;;;;;;;776257;180;783841;-58
2022/07/26 03:13:41;;;;;;;14.27;11.07;;;;;;;;;;780618;180;627313;-56
2022/07/26 03:16:07;;;;;;;14.20;10.57;;;;;;;;;;772905;180;820076;-59
2022/07/26 03:18:33;;;;;;;12.73;11.40;;;;;;;;;;771378;180;636519;-56
2022/07/26 03:21:00;;;;;;;14.90;11.37;;;;;;;;;;774703;181;919463;-57
2022/07/26 03:23:26;;;;;;;15.10;11.90;;;;;;;;;;777833;178;649066;-58
2022/07/26 03:25:52;;;;;;;12.67;10.43;;;;;;;;;;774590;181;628611;-56
2022/07/26 03:28:17;;;;;;;26.23;12.00;;;;;;;;;;775138;180;620762;-56
2022/07/26 03:30:43;;;;;;;16.27;12.40;;;;;;;;;;758566;186;620277;-59
2022/07/26 03:33:09;;;;;;;17.40;12.73;;;;;;;;;;783486;177;628548;-56
2022/07/26 03:35:35;;;;;;;16.00;12.07;;;;;;;;;;785915;177;616740;-57
2022/07/26 03:38:01;;;;;;;14.53;12.00;;;;;;;;;;773616;182;621671;-57
2022/07/26 03:40:27;;;;;;;14.93;12.63;;;;;;;;;;783617;180;630124;-56
2022/07/26 03:42:52;;;;;;;15.50;11.57;;;;;;;;;;767988;182;610670;-56
2022/07/26 03:45:18;;;;;;;14.03;11.50;;;;;;;;;;772054;181;627415;-56
2022/07/26 03:47:45;;;;;;;19.60;11.30;;;;;;;;;;777083;181;626031;-56
2022/07/26 03:50:10;;;;;;;17.63;13.63;;;;;;;;;;756380;183;619059;-56
2022/07/26 03:52:36;;;;;;;18.83;12.17;;;;;;;;;;788503;175;623140;-58
2022/07/26 03:56:27;;;;;;;13.60;12.10;;;;;;;;;;796130;175;635926;-58
2022/07/26 03:57:28;;;;;;;14.93;11.00;;;;;;;;;;787675;177;621176;-58
2022/07/26 03:59:54;;;;;;;15.07;10.30;;;;;;;;;;784841;177;635926;-58
2022/07/26 04:02:20;;;;;;;53.33;11.70;;;;;;;;;;774290;182;619760;-58
2022/07/26 04:04:46;;;;;;;29.70;11.77;;;;;;;;;;772916;180;620570;-56
2022/07/26 04:07:11;;;;;;;36.93;12.23;;;;;;;;;;765807;182;629527;-56
2022/07/26 04:09:37;;;;;;;17.40;10.10;;;;;;;;;;773196;182;632062;-56
2022/07/26 04:12:03;;;;;;;14.27;8.73;;;;;;;;;;770035;181;622967;-56
2022/07/26 04:14:29;;;;;;;15.73;9.17;;;;;;;;;;777939;180;864520;-55
2022/07/26 04:16:55;;;;;;;11.33;8.97;;;;;;;;;;775861;181;651359;-58
2022/07/26 04:19:21;;;;;;;13.23;9.23;;;;;;;;;;777626;181;637000;-56
2022/07/26 04:21:47;;;;;;;13.50;10.40;;;;;;;;;;776808;180;625858;-56
2022/07/26 04:24:13;;;;;;;10.97;9.30;;;;;;;;;;778534;180;627650;-58
2022/07/26 04:26:38;;;;;;;11.53;9.20;;;;;;;;;;780765;179;616115;-55
2022/07/26 04:29:04;;;;;;;15.50;10.23;;;;;;;;;;779749;180;616792;-57
2022/07/26 04:31:30;;;;;;;14.03;10.07;;;;;;;;;;778881;180;617648;-58
2022/07/26 04:33:56;;;;;;;14.60;9.47;;;;;;;;;;757824;186;689920;-58
2022/07/26 04:36:22;;;;;;;18.10;10.20;;;;;;;;;;778016;178;620005;-54
2022/07/26 04:38:48;;;;;;;20.10;11.50;;;;;;;;;;786116;178;639593;-59
2022/07/26 04:41:13;;;;;;;13.97;11.50;;;;;;;;;;788128;176;626596;-59
2022/07/26 04:43:39;;;;;;;23.63;10.77;;;;;;;;;;760205;185;619311;-58
2022/07/26 04:46:05;;;;;;;20.47;10.97;;;;;;;;;;785684;176;638883;-59
2022/07/26 04:48:31;;;;;;;18.40;11.20;;;;;;;;;;782376;178;621985;-58
2022/07/26 04:50:57;;;;;;;13.77;11.30;;;;;;;;;;771128;180;618035;-56
2022/07/26 04:53:23;;;;;;;17.83;11.00;;;;;;;;;;779814;177;626928;-58
2022/07/26 04:55:49;;;;;;;20.23;12.33;;;;;;;;;;780564;176;616734;-56
2022/07/26 04:58:15;;;;;;;18.47;11.67;;;;;;;;;;763292;182;624730;-58
2022/07/26 05:00:40;;;;;;;16.10;11.57;;;;;;;;;;788698;177;617982;-55
2022/07/26 05:03:06;;;;;;;20.47;12.90;;;;;;;;;;785009;177;634001;-56
2022/07/26 05:05:32;;;;;;;14.95;11.68;;;;;;;;;;791641;175;629690;-58
2022/07/26 05:07:58;;;;;;;26.03;13.20;;;;;;;;;;787601;176;618364;-55
2022/07/26 05:10:27;;;;;;;15.63;12.43;;;;;;;;;;787339;176;616539;-59
2022/07/26 05:12:53;;;;;;;17.23;12.20;;;;;;;;;;790253;176;614611;-58
2022/07/26 05:15:19;;;;;;;18.80;12.73;;;;;;;;;;790038;178;615475;-56
2022/07/26 05:17:44;;;;;;;14.63;11.80;;;;;;;;;;789978;177;619795;-56
2022/07/26 05:20:10;;;;;;;14.43;11.17;;;;;;;;;;759228;182;638030;-55
2022/07/26 05:22:36;;;;;;;15.73;12.87;;;;;;;;;;771333;183;612953;-56
2022/07/26 05:25:02;;;;;;;17.70;13.10;;;;;;;;;;776315;179;636644;-58
2022/07/26 05:27:28;;;;;;;19.60;12.63;;;;;;;;;;774597;178;629929;-58
2022/07/26 05:29:54;;;;;;;17.73;13.07;;;;;;;;;;776839;180;632599;-59
2022/07/26 05:32:20;;;;;;;17.13;12.83;;;;;;;;;;765751;181;813495;-57
2022/07/26 05:34:45;;;;;;;17.90;11.40;;;;;;;;;;788041;177;631859;-58
2022/07/26 05:37:11;;;;;;;16.73;12.47;;;;;;;;;;788297;177;627537;-56
2022/07/26 05:39:37;;;;;;;18.73;13.63;;;;;;;;;;772701;182;632339;-56
2022/07/26 05:42:03;;;;;;;16.10;14.30;;;;;;;;;;786648;176;626215;-55
2022/07/26 05:44:29;;;;;;;20.70;16.03;;;;;;;;;;772881;180;692978;-56
2022/07/26 05:46:55;;;;;;;31.90;23.60;;;;;;;;;;786154;178;644890;-57
2022/07/26 05:49:21;;;;;;;27.43;22.53;;;;;;;;;;787480;176;623858;-55
2022/07/26 05:51:46;;;;;;;30.23;19.60;;;;;;;;;;783827;177;616905;-56
2022/07/26 05:54:12;;;;;;;22.13;15.93;;;;;;;;;;778308;177;627992;-56
2022/07/26 05:56:38;;;;;;;19.00;16.10;;;;;;;;;;777415;180;628759;-57
2022/07/26 05:59:04;;;;;;;16.47;13.97;;;;;;;;;;771976;180;684581;-58
2022/07/26 06:01:31;;;;;;;15.93;14.27;;;;;;;;;;773467;180;922468;-57
2022/07/26 06:03:56;;;;;;;19.27;15.87;;;;;;;;;;777420;180;623792;-55
2022/07/26 06:06:22;;;;;;;22.43;17.43;;;;;;;;;;774414;179;627167;-57
2022/07/26 06:08:47;;;;;;;34.73;19.90;;;;;;;;;;775086;180;623456;-55
2022/07/26 06:11:13;;;;;;;22.13;18.50;;;;;;;;;;783439;179;623326;-55
2022/07/26 06:13:39;;;;;;;21.37;18.13;;;;;;;;;;762518;182;625075;-55
2022/07/26 06:16:05;;;;;;;25.40;19.90;;;;;;;;;;773604;180;630213;-55
2022/07/26 06:18:32;;;;;;;29.27;20.80;;;;;;;;;;770862;182;634734;-58
2022/07/26 06:20:58;;;;;;;28.67;21.10;;;;;;;;;;774124;181;629575;-58
2022/07/26 06:23:23;;;;;;;27.53;23.43;;;;;;;;;;770138;181;817038;-58
2022/07/26 06:25:49;;;;;;;41.00;27.80;;;;;;;;;;765502;181;619785;-55
2022/07/26 06:28:15;;;;;;;29.40;25.90;;;;;;;;;;768178;182;625729;-55
2022/07/26 06:30:41;;;;;;;28.93;25.77;;;;;;;;;;773507;179;621945;-55
2022/07/26 06:33:08;;;;;;;33.70;26.80;;;;;;;;;;777426;179;633215;-56
2022/07/26 06:35:34;;;;;;;28.97;24.50;;;;;;;;;;777574;180;632658;-56
2022/07/26 06:37:59;;;;;;;35.00;25.50;;;;;;;;;;775189;179;649500;-58
2022/07/26 06:40:25;;;;;;;27.53;23.50;;;;;;;;;;780068;179;631297;-55
2022/07/26 06:42:51;;;;;;;31.67;28.03;;;;;;;;;;781537;180;634100;-55
2022/07/26 06:45:17;;;;;;;31.37;25.53;;;;;;;;;;773834;180;646873;-59
2022/07/26 06:47:43;;;;;;;33.20;26.30;;;;;;;;;;778431;180;621377;-59
2022/07/26 06:50:09;;;;;;;30.83;25.07;;;;;;;;;;773883;181;625104;-57
2022/07/26 06:52:35;;;;;;;28.80;25.30;;;;;;;;;;758876;185;625667;-60
2022/07/26 06:55:01;;;;;;;29.07;25.07;;;;;;;;;;772417;176;632186;-60
2022/07/26 06:57:26;;;;;;;27.17;24.17;;;;;;;;;;773811;180;626933;-57
2022/07/26 06:59:52;;;;;;;30.43;25.77;;;;;;;;;;777183;181;616570;-57
2022/07/26 07:02:18;;;;;;;30.13;24.93;;;;;;;;;;771985;180;632346;-57
2022/07/26 07:04:44;;;;;;;45.00;32.43;;;;;;;;;;773572;180;636194;-60
2022/07/26 07:07:10;;;;;;;44.33;35.60;;;;;;;;;;778460;181;622074;-58
2022/07/26 07:09:36;;;;;;;47.03;37.37;;;;;;;;;;775416;180;626306;-56
2022/07/26 07:12:02;;;;;;;44.10;37.10;;;;;;;;;;777916;180;628961;-55
2022/07/26 07:14:27;;;;;;;39.10;32.40;;;;;;;;;;775072;180;649478;-56
2022/07/26 07:16:54;;;;;;;43.60;32.20;;;;;;;;;;778024;180;635157;-56
2022/07/26 07:19:19;;;;;;;39.30;31.70;;;;;;;;;;776995;178;638047;-58
2022/07/26 07:21:45;;;;;;;34.07;30.30;;;;;;;;;;785556;178;622538;-56
2022/07/26 07:24:11;;;;;;;33.97;29.90;;;;;;;;;;773005;182;614543;-55
2022/07/26 07:26:37;;;;;;;33.43;28.53;;;;;;;;;;784825;177;630495;-56
2022/07/26 07:29:03;;;;;;;37.23;31.67;;;;;;;;;;786433;175;687766;-56
2022/07/26 07:31:28;;;;;;;32.10;28.50;;;;;;;;;;774506;180;615678;-58
2022/07/26 07:33:54;;;;;;;37.33;30.67;;;;;;;;;;780068;177;903430;-58
2022/07/26 07:36:21;;;;;;;35.23;28.43;;;;;;;;;;770365;181;628114;-55
2022/07/26 07:38:47;;;;;;;36.63;29.10;;;;;;;;;;775163;180;638793;-55
2022/07/26 07:41:13;;;;;;;34.03;28.90;;;;;;;;;;781327;179;620199;-58
2022/07/26 07:43:39;;;;;;;36.40;31.20;;;;;;;;;;785357;177;635540;-55
2022/07/26 07:46:05;;;;;;;37.03;32.33;;;;;;;;;;780491;180;628971;-55
2022/07/26 07:48:31;;;;;;;36.10;31.10;;;;;;;;;;776651;181;614373;-58
2022/07/26 07:50:56;;;;;;;39.53;31.40;;;;;;;;;;776964;179;618167;-58
2022/07/26 07:53:22;;;;;;;33.83;30.23;;;;;;;;;;776330;180;637994;-57
2022/07/26 07:55:48;;;;;;;35.00;30.30;;;;;;;;;;777630;179;614566;-57
2022/07/26 07:58:14;;;;;;;34.00;29.00;;;;;;;;;;767194;181;628719;-56
2022/07/26 08:00:40;;;;;;;34.43;29.13;;;;;;;;;;774892;180;629960;-56
2022/07/26 08:03:06;;;;;;;34.07;29.73;;;;;;;;;;779401;179;617933;-57
2022/07/26 08:05:31;;;;;;;34.37;30.67;;;;;;;;;;772576;180;613361;-54
2022/07/26 08:07:57;;;;;;;31.40;27.83;;;;;;;;;;785550;177;626591;-54
2022/07/26 08:10:23;;;;;;;33.83;30.27;;;;;;;;;;785093;178;619180;-55
2022/07/26 08:12:49;;;;;;;33.27;27.27;;;;;;;;;;772766;182;673524;-56
2022/07/26 08:15:15;;;;;;;31.47;27.80;;;;;;;;;;783653;177;676620;-54
2022/07/26 08:17:41;;;;;;;31.20;27.63;;;;;;;;;;767310;182;636485;-54
2022/07/26 08:20:07;;;;;;;32.17;27.20;;;;;;;;;;774221;182;678046;-54
2022/07/26 08:22:33;;;;;;;31.73;26.50;;;;;;;;;;785014;176;629493;-54
2022/07/26 08:24:59;;;;;;;31.37;28.10;;;;;;;;;;776172;178;619978;-54
2022/07/26 08:27:25;;;;;;;30.63;26.93;;;;;;;;;;793260;176;816599;-56
2022/07/26 08:29:51;;;;;;;30.77;27.17;;;;;;;;;;783464;178;637366;-53
2022/07/26 08:32:17;;;;;;;33.10;28.60;;;;;;;;;;784875;178;631156;-53
2022/07/26 08:34:42;;;;;;;31.40;28.07;;;;;;;;;;788549;175;615457;-54
2022/07/26 08:37:08;;;;;;;32.57;29.13;;;;;;;;;;771596;182;624319;-53
2022/07/26 08:39:34;;;;;;;33.00;29.40;;;;;;;;;;790069;177;630605;-54
2022/07/26 08:42:00;;;;;;;34.37;29.60;;;;;;;;;;760478;184;627054;-57
2022/07/26 08:44:26;;;;;;;35.90;30.50;;;;;;;;;;774199;183;618924;-56
2022/07/26 08:46:52;;;;;;;37.33;31.70;;;;;;;;;;791610;176;647071;-54
2022/07/26 08:49:17;;;;;;;36.57;32.30;;;;;;;;;;785356;175;632347;-54
2022/07/26 08:51:43;;;;;;;37.53;31.27;;;;;;;;;;772382;182;627883;-56
2022/07/26 08:54:10;;;;;;;39.60;33.20;;;;;;;;;;779374;177;633726;-54
2022/07/26 08:56:36;;;;;;;36.33;32.43;;;;;;;;;;782124;174;654917;-57
2022/07/26 08:59:02;;;;;;;35.57;30.43;;;;;;;;;;785455;178;635316;-57
2022/07/26 09:01:28;;;;;;;34.47;30.87;;;;;;;;;;792551;177;611921;-56
2022/07/26 09:03:54;;;;;;;35.00;31.30;;;;;;;;;;792340;174;620874;-55
2022/07/26 09:06:20;;;;;;;39.37;33.60;;;;;;;;;;792300;174;615764;-53
2022/07/26 09:08:45;;;;;;;43.50;33.03;;;;;;;;;;775475;181;617948;-54
2022/07/26 09:11:27;;;;;;;40.17;30.90;;;;;;;;;;789382;178;621780;-53
2022/07/26 09:13:52;;;;;;;44.63;35.60;;;;;;;;;;788860;177;626884;-56
2022/07/26 09:16:18;;;;;;;42.63;36.27;;;;;;;;;;790677;177;647576;-54
2022/07/26 09:18:44;;;;;;;38.80;33.60;;;;;;;;;;771949;183;616947;-54
2022/07/26 09:21:15;;;;;;;49.23;43.43;;;;;;;;;;781705;177;628472;-54
2022/07/26 09:23:41;;;;;;;53.00;44.33;;;;;;;;;;782327;179;639068;-55
2022/07/26 09:26:07;;;;;;;50.23;44.73;;;;;;;;;;762884;184;636103;-54
2022/07/26 09:28:33;;;;;;;51.93;46.03;;;;;;;;;;770171;182;622127;-53
2022/07/26 09:30:59;;;;;;;67.93;58.17;;;;;;;;;;760982;183;620739;-56
2022/07/26 09:33:24;;;;;;;76.37;67.17;;;;;;;;;;787755;176;639115;-59
2022/07/26 09:36:05;;;;;;;76.10;67.70;;;;;;;;;;794752;176;615844;-53
2022/07/26 09:38:37;;;;;;;75.20;61.10;;;;;;;;;;790162;176;629912;-53
2022/07/26 09:41:03;;;;;;;69.27;59.87;;;;;;;;;;786167;178;622824;-55
2022/07/26 09:43:29;;;;;;;58.57;51.93;;;;;;;;;;786933;175;631750;-54
2022/07/26 09:46:00;;;;;;;53.97;47.60;;;;;;;;;;770646;179;617048;-55
2022/07/26 09:48:28;;;;;;;56.20;49.00;;;;;;;;;;771063;182;624979;-56
2022/07/26 09:50:52;;;;;;;64.20;53.87;;;;;;;;;;782249;177;618941;-55
2022/07/26 09:53:20;;;;;;;59.80;53.50;;;;;;;;;;767444;180;628575;-53
2022/07/26 09:55:59;;;;;;;66.03;58.60;;;;;;;;;;778282;180;650262;-57
2022/07/26 09:58:24;;;;;;;60.10;52.90;;;;;;;;;;774518;180;636785;-55
2022/07/26 10:00:50;;;;;;;55.90;49.57;;;;;;;;;;769920;179;645646;-55
2022/07/26 10:03:16;;;;;;;57.40;47.17;;;;;;;;;;773709;181;626027;-55
2022/07/26 10:05:42;;;;;;;55.00;43.47;;;;;;;;;;768278;181;630725;-53
2022/07/26 10:08:08;;;;;;;48.40;42.50;;;;;;;;;;770431;179;620168;-55
2022/07/26 10:10:35;;;;;;;48.27;41.40;;;;;;;;;;784467;178;631779;-57
2022/07/26 10:13:01;;;;;;;48.00;39.97;;;;;;;;;;785558;178;618915;-55
2022/07/26 10:15:32;;;;;;;46.17;35.60;;;;;;;;;;773504;182;818870;-54
2022/07/26 10:17:58;;;;;;;35.20;26.90;;;;;;;;;;780288;179;630037;-54
2022/07/26 10:20:39;;;;;;;24.87;21.50;;;;;;;;;;763415;181;632861;-54
2022/07/26 10:23:04;;;;;;;24.27;20.80;;;;;;;;;;767269;181;638843;-57
2022/07/26 10:25:46;;;;;;;22.52;18.20;;;;;;;;;;769636;183;627120;-56
2022/07/26 10:28:11;;;;;;;18.70;13.43;;;;;;;;;;791502;177;627517;-56
2022/07/26 10:30:37;;;;;;;15.97;13.60;;;;;;;;;;789707;177;632702;-57
2022/07/26 10:33:03;;;;;;;14.63;12.57;;;;;;;;;;786823;177;627873;-56
2022/07/26 10:35:30;;;;;;;15.43;11.40;;;;;;;;;;789629;177;624770;-54
2022/07/26 10:37:57;;;;;;;14.80;11.97;;;;;;;;;;791790;177;631914;-57
2022/07/26 10:40:28;;;;;;;11.97;10.67;;;;;;;;;;783296;178;634723;-57
2022/07/26 10:42:49;;;;;;;16.03;11.10;;;;;;;;;;785330;177;657681;-57
2022/07/26 10:45:15;;;;;;;13.50;11.40;;;;;;;;;;770594;180;622742;-54
2022/07/26 10:47:40;;;;;;;12.40;11.13;;;;;;;;;;763716;182;631315;-56
2022/07/26 10:50:06;;;;;;;11.10;9.97;;;;;;;;;;771890;181;626411;-54
2022/07/26 10:52:32;;;;;;;14.07;10.30;;;;;;;;;;770549;181;630935;-56
2022/07/26 10:55:05;;;;;;;10.87;8.23;;;;;;;;;;788666;177;634778;-56
2022/07/26 10:57:33;;;;;;;11.57;8.60;;;;;;;;;;786272;177;637533;-54
2022/07/26 10:59:59;;;;;;;16.87;11.63;;;;;;;;;;786405;178;635107;-54
2022/07/26 11:02:27;;;;;;;13.97;9.60;;;;;;;;;;773737;180;616988;-55
2022/07/26 11:04:59;;;;;;;12.23;8.00;;;;;;;;;;789755;175;634301;-55
2022/07/26 11:07:25;;;;;;;13.07;9.00;;;;;;;;;;783118;177;636176;-53
2022/07/26 11:09:51;;;;;;;11.70;10.33;;;;;;;;;;785560;178;628836;-54
2022/07/26 11:12:17;;;;;;;11.97;10.23;;;;;;;;;;788826;179;706592;-54
2022/07/26 11:14:42;;;;;;;13.63;10.40;;;;;;;;;;770786;180;628164;-54
2022/07/26 11:17:08;;;;;;;12.03;8.30;;;;;;;;;;774406;179;718722;-55
2022/07/26 11:19:41;;;;;;;15.87;10.27;;;;;;;;;;788845;177;638588;-54
2022/07/26 11:22:07;;;;;;;12.70;9.77;;;;;;;;;;785384;177;623839;-54
2022/07/26 11:24:33;;;;;;;19.53;12.30;;;;;;;;;;787577;177;634210;-56
2022/07/26 11:30:56;;;;;;;11.17;9.07;;;;;;;;;;791048;170;920051;-57
2022/07/26 11:33:22;;;;;;;12.67;9.40;;;;;;;;;;781014;178;636379;-54
2022/07/26 11:35:49;;;;;;;11.20;9.67;;;;;;;;;;774574;180;622783;-53
2022/07/26 11:38:15;;;;;;;13.33;10.17;;;;;;;;;;782666;177;626035;-54
2022/07/26 11:40:41;;;;;;;13.60;9.63;;;;;;;;;;772471;180;627079;-55
2022/07/26 11:43:07;;;;;;;12.40;7.90;;;;;;;;;;779306;177;629749;-56
2022/07/26 11:45:33;;;;;;;13.17;7.97;;;;;;;;;;781711;177;627402;-56
2022/07/26 11:47:59;;;;;;;11.20;10.10;;;;;;;;;;772064;179;790551;-54
2022/07/26 11:50:25;;;;;;;13.77;11.17;;;;;;;;;;772381;180;918178;-54
2022/07/26 11:52:51;;;;;;;14.07;8.67;;;;;;;;;;777372;180;913740;-54
2022/07/26 11:55:31;;;;;;;11.53;10.30;;;;;;;;;;770995;178;857895;-58
2022/07/26 11:57:57;;;;;;;14.77;9.70;;;;;;;;;;771322;181;926101;-58
2022/07/26 12:00:23;;;;;;;17.33;8.97;;;;;;;;;;773967;180;923276;-57
2022/07/26 12:02:49;;;;;;;19.00;13.10;;;;;;;;;;777657;180;919866;-57
2022/07/26 12:05:16;;;;;;;31.63;9.60;;;;;;;;;;772448;178;919058;-55
2022/07/26 12:07:48;;;;;;;13.63;8.20;;;;;;;;;;772440;180;948736;-55
2022/07/26 12:10:14;;;;;;;16.60;10.43;;;;;;;;;;770746;178;919128;-54
2022/07/26 12:12:40;;;;;;;9.97;6.87;;;;;;;;;;777728;180;919189;-57
2022/07/26 12:15:06;;;;;;;7.63;5.70;;;;;;;;;;774317;179;919934;-55
2022/07/26 12:17:32;;;;;;;14.05;11.05;;;;;;;;;;770246;180;916739;-57
2022/07/26 12:20:03;;;;;;;11.27;7.57;;;;;;;;;;778184;180;915728;-56
2022/07/26 12:22:29;;;;;;;16.53;6.13;;;;;;;;;;778314;178;916306;-57
2022/07/26 12:24:56;;;;;;;11.17;8.03;;;;;;;;;;774477;180;819127;-56
2022/07/26 12:27:23;;;;;;;9.00;7.50;;;;;;;;;;773582;180;919324;-54
2022/07/26 12:29:49;;;;;;;10.87;7.90;;;;;;;;;;779077;181;722897;-54
2022/07/26 12:32:17;;;;;;;10.20;7.40;;;;;;;;;;775363;181;818791;-56
2022/07/26 12:34:48;;;;;;;9.63;6.90;;;;;;;;;;773800;180;832428;-53
2022/07/26 12:37:14;;;;;;;12.23;6.43;;;;;;;;;;772342;179;817512;-56
2022/07/26 12:39:40;;;;;;;15.57;7.73;;;;;;;;;;778157;177;896292;-57
2022/07/26 12:42:12;;;;;;;10.93;6.00;;;;;;;;;;776981;180;915236;-57
2022/07/26 12:44:38;;;;;;;10.70;6.23;;;;;;;;;;776145;179;896560;-56
2022/07/26 12:47:04;;;;;;;9.40;7.10;;;;;;;;;;776770;178;919031;-56
2022/07/26 12:49:29;;;;;;;9.63;6.40;;;;;;;;;;759256;183;816931;-54
2022/07/26 12:51:55;;;;;;;10.17;6.10;;;;;;;;;;759558;181;820366;-54
2022/07/26 12:54:21;;;;;;;10.17;7.80;;;;;;;;;;773690;177;919372;-55
2022/07/26 12:56:47;;;;;;;11.93;6.60;;;;;;;;;;780565;178;917806;-55
2022/07/26 12:59:13;;;;;;;12.17;5.60;;;;;;;;;;772704;180;919470;-57
2022/07/26 13:01:39;;;;;;;16.50;6.80;;;;;;;;;;767351;180;918548;-56
2022/07/26 13:04:04;;;;;;;9.93;6.20;;;;;;;;;;779636;181;815937;-57
2022/07/26 13:06:31;;;;;;;12.00;6.20;;;;;;;;;;774856;180;817205;-54
2022/07/26 13:08:56;;;;;;;6.87;5.27;;;;;;;;;;776087;177;919262;-54
2022/07/26 13:11:23;;;;;;;7.37;5.03;;;;;;;;;;775224;180;917689;-55
2022/07/26 13:13:49;;;;;;;9.23;5.50;;;;;;;;;;773370;177;916282;-57
2022/07/26 13:16:14;;;;;;;6.93;5.03;;;;;;;;;;767737;180;817092;-56
2022/07/26 13:18:40;;;;;;;12.90;8.27;;;;;;;;;;773204;180;815186;-54
2022/07/26 13:21:06;;;;;;;7.57;4.70;;;;;;;;;;778767;181;919060;-54
2022/07/26 13:23:32;;;;;;;14.23;6.30;;;;;;;;;;774148;178;913171;-54
2022/07/26 13:25:58;;;;;;;6.90;4.33;;;;;;;;;;774510;178;912039;-54
2022/07/26 13:28:24;;;;;;;8.43;4.87;;;;;;;;;;777623;180;923451;-56
2022/07/26 13:30:49;;;;;;;8.67;5.03;;;;;;;;;;773003;178;918302;-57
2022/07/26 13:33:16;;;;;;;8.00;4.73;;;;;;;;;;773852;180;919157;-57
2022/07/26 13:35:41;;;;;;;10.63;5.40;;;;;;;;;;772139;180;919461;-56
2022/07/26 13:38:07;;;;;;;8.83;5.73;;;;;;;;;;775603;180;931879;-57
2022/07/26 13:40:33;;;;;;;7.67;4.63;;;;;;;;;;772725;180;919038;-56
2022/07/26 13:42:59;;;;;;;9.87;4.90;;;;;;;;;;768781;180;919418;-57
2022/07/26 13:45:25;;;;;;;7.57;5.67;;;;;;;;;;780346;180;828949;-54
2022/07/26 13:47:50;;;;;;;9.60;4.93;;;;;;;;;;776377;180;820015;-54
2022/07/26 13:50:16;;;;;;;7.37;5.20;;;;;;;;;;774579;180;919535;-54
2022/07/26 13:52:42;;;;;;;7.53;5.70;;;;;;;;;;780151;179;781284;-57
2022/07/26 13:55:08;;;;;;;8.00;5.40;;;;;;;;;;773957;179;919049;-56
2022/07/26 13:57:34;;;;;;;7.00;5.93;;;;;;;;;;776431;180;815963;-54
2022/07/26 14:00:00;;;;;;;10.87;6.33;;;;;;;;;;776220;180;908824;-57
2022/07/26 14:02:25;;;;;;;9.67;6.00;;;;;;;;;;774348;180;917368;-57
2022/07/26 14:04:51;;;;;;;7.10;5.47;;;;;;;;;;773842;178;892757;-58
2022/07/26 14:07:17;;;;;;;8.40;5.27;;;;;;;;;;773708;179;919075;-56